sensor_id;sensor_type;location;lat;lon;timestamp;P1;durP1;ratioP1;P2;durP2;ratioP2
23262;SDS011;11800;49.830;9.922;2023-04-03T00:00:56;0.20;;;0.20;;
23262;SDS011;11800;49.830;9.922;2023-04-03T00:03:22;0.20;;;0.20;;
23262;SDS011;11800;49.830;9.922;2023-04-03T00:05:48;0.30;;;0.30;;
23262;SDS011;11800;49.830;9.922;2023-04-03T00:08:15;0.20;;;0.20;;
23262;SDS011;11800;49.830;9.922;2023-04-03T00:10:41;0.20;;;0.20;;
23262;SDS011;11800;49.830;9.922;2023-04-03T00:13:07;0.20;;;0.20;;
23262;SDS011;11800;49.830;9.922;2023-04-03T00:15:34;0.20;;;0.20;;
23262;SDS011;11800;49.830;9.922;2023-04-03T00:18:00;0.20;;;0.20;;
23262;SDS011;11800;49.830;9.922;2023-04-03T00:20:26;0.20;;;0.20;;
23262;SDS011;11800;49.830;9.922;2023-04-03T00:22:53;0.20;;;0.20;;
23262;SDS011;11800;49.830;9.922;2023-04-03T00:25:19;0.20;;;0.20;;
23262;SDS011;11800;49.830;9.922;2023-04-03T00:27:45;0.20;;;0.20;;
23262;SDS011;11800;49.830;9.922;2023-04-03T00:30:13;0.20;;;0.20;;
23262;SDS011;11800;49.830;9.922;2023-04-03T00:32:39;0.20;;;0.20;;
23262;SDS011;11800;49.830;9.922;2023-04-03T00:35:05;0.20;;;0.20;;
23262;SDS011;11800;49.830;9.922;2023-04-03T00:37:31;0.20;;;0.20;;
23262;SDS011;11800;49.830;9.922;2023-04-03T00:39:57;0.30;;;0.30;;
23262;SDS011;11800;49.830;9.922;2023-04-03T00:42:23;0.20;;;0.20;;
23262;SDS011;11800;49.830;9.922;2023-04-03T00:47:22;0.20;;;0.20;;
23262;SDS011;11800;49.830;9.922;2023-04-03T00:49:48;0.20;;;0.20;;
23262;SDS011;11800;49.830;9.922;2023-04-03T00:52:16;0.20;;;0.20;;
23262;SDS011;11800;49.830;9.922;2023-04-03T00:54:43;0.20;;;0.20;;
23262;SDS011;11800;49.830;9.922;2023-04-03T00:57:11;0.20;;;0.20;;
23262;SDS011;11800;49.830;9.922;2023-04-03T00:59:41;0.20;;;0.20;;
23262;SDS011;11800;49.830;9.922;2023-04-03T01:02:09;0.20;;;0.20;;
23262;SDS011;11800;49.830;9.922;2023-04-03T01:04:39;0.20;;;0.20;;
23262;SDS011;11800;49.830;9.922;2023-04-03T01:09:38;0.20;;;0.20;;
23262;SDS011;11800;49.830;9.922;2023-04-03T01:12:20;0.20;;;0.20;;
23262;SDS011;11800;49.830;9.922;2023-04-03T01:14:49;0.20;;;0.20;;
23262;SDS011;11800;49.830;9.922;2023-04-03T01:22:44;0.20;;;0.20;;
23262;SDS011;11800;49.830;9.922;2023-04-03T01:25:12;0.15;;;0.15;;
23262;SDS011;11800;49.830;9.922;2023-04-03T01:27:38;0.20;;;0.20;;
23262;SDS011;11800;49.830;9.922;2023-04-03T01:30:04;0.20;;;0.20;;
23262;SDS011;11800;49.830;9.922;2023-04-03T01:32:31;0.20;;;0.20;;
23262;SDS011;11800;49.830;9.922;2023-04-03T01:34:57;0.20;;;0.20;;
23262;SDS011;11800;49.830;9.922;2023-04-03T01:37:23;0.20;;;0.20;;
23262;SDS011;11800;49.830;9.922;2023-04-03T01:39:49;0.20;;;0.20;;
23262;SDS011;11800;49.830;9.922;2023-04-03T01:42:15;0.20;;;0.20;;
23262;SDS011;11800;49.830;9.922;2023-04-03T01:44:42;0.20;;;0.20;;
23262;SDS011;11800;49.830;9.922;2023-04-03T01:47:08;0.20;;;0.20;;
23262;SDS011;11800;49.830;9.922;2023-04-03T01:49:34;0.20;;;0.20;;
23262;SDS011;11800;49.830;9.922;2023-04-03T01:52:00;0.20;;;0.20;;
23262;SDS011;11800;49.830;9.922;2023-04-03T01:54:26;0.20;;;0.20;;
23262;SDS011;11800;49.830;9.922;2023-04-03T01:56:52;0.20;;;0.20;;
23262;SDS011;11800;49.830;9.922;2023-04-03T01:59:18;0.20;;;0.20;;
23262;SDS011;11800;49.830;9.922;2023-04-03T02:01:44;0.20;;;0.20;;
23262;SDS011;11800;49.830;9.922;2023-04-03T02:04:11;0.20;;;0.20;;
23262;SDS011;11800;49.830;9.922;2023-04-03T02:06:37;0.20;;;0.20;;
23262;SDS011;11800;49.830;9.922;2023-04-03T02:09:03;0.20;;;0.20;;
23262;SDS011;11800;49.830;9.922;2023-04-03T02:11:29;0.20;;;0.20;;
23262;SDS011;11800;49.830;9.922;2023-04-03T02:13:55;0.20;;;0.20;;
23262;SDS011;11800;49.830;9.922;2023-04-03T02:16:21;0.20;;;0.20;;
23262;SDS011;11800;49.830;9.922;2023-04-03T02:18:47;0.20;;;0.20;;
23262;SDS011;11800;49.830;9.922;2023-04-03T02:21:13;0.20;;;0.20;;
23262;SDS011;11800;49.830;9.922;2023-04-03T02:23:39;0.20;;;0.20;;
23262;SDS011;11800;49.830;9.922;2023-04-03T02:26:09;0.10;;;0.10;;
23262;SDS011;11800;49.830;9.922;2023-04-03T02:28:36;0.20;;;0.20;;
23262;SDS011;11800;49.830;9.922;2023-04-03T02:31:03;0.10;;;0.10;;
23262;SDS011;11800;49.830;9.922;2023-04-03T02:33:31;0.20;;;0.20;;
23262;SDS011;11800;49.830;9.922;2023-04-03T02:35:57;0.20;;;0.20;;
23262;SDS011;11800;49.830;9.922;2023-04-03T02:38:23;0.20;;;0.20;;
23262;SDS011;11800;49.830;9.922;2023-04-03T02:40:49;0.20;;;0.20;;
23262;SDS011;11800;49.830;9.922;2023-04-03T02:43:16;0.20;;;0.20;;
23262;SDS011;11800;49.830;9.922;2023-04-03T02:45:42;0.22;;;0.22;;
23262;SDS011;11800;49.830;9.922;2023-04-03T02:48:08;0.20;;;0.20;;
23262;SDS011;11800;49.830;9.922;2023-04-03T02:50:34;0.20;;;0.20;;
23262;SDS011;11800;49.830;9.922;2023-04-03T02:53:00;0.17;;;0.17;;
23262;SDS011;11800;49.830;9.922;2023-04-03T02:55:26;0.20;;;0.20;;
23262;SDS011;11800;49.830;9.922;2023-04-03T02:57:52;0.20;;;0.20;;
23262;SDS011;11800;49.830;9.922;2023-04-03T03:00:18;0.20;;;0.20;;
23262;SDS011;11800;49.830;9.922;2023-04-03T03:02:44;0.20;;;0.20;;
23262;SDS011;11800;49.830;9.922;2023-04-03T03:05:10;0.20;;;0.20;;
23262;SDS011;11800;49.830;9.922;2023-04-03T03:07:36;0.20;;;0.20;;
23262;SDS011;11800;49.830;9.922;2023-04-03T03:10:03;0.20;;;0.20;;
23262;SDS011;11800;49.830;9.922;2023-04-03T03:12:29;0.10;;;0.10;;
23262;SDS011;11800;49.830;9.922;2023-04-03T03:14:54;0.20;;;0.20;;
23262;SDS011;11800;49.830;9.922;2023-04-03T03:17:20;0.17;;;0.17;;
23262;SDS011;11800;49.830;9.922;2023-04-03T03:19:46;0.20;;;0.20;;
23262;SDS011;11800;49.830;9.922;2023-04-03T03:22:12;0.20;;;0.20;;
23262;SDS011;11800;49.830;9.922;2023-04-03T03:24:38;0.20;;;0.20;;
23262;SDS011;11800;49.830;9.922;2023-04-03T03:27:04;0.20;;;0.20;;
23262;SDS011;11800;49.830;9.922;2023-04-03T03:29:30;0.20;;;0.20;;
23262;SDS011;11800;49.830;9.922;2023-04-03T03:31:56;0.20;;;0.20;;
23262;SDS011;11800;49.830;9.922;2023-04-03T03:34:22;0.17;;;0.17;;
23262;SDS011;11800;49.830;9.922;2023-04-03T03:36:48;0.20;;;0.20;;
23262;SDS011;11800;49.830;9.922;2023-04-03T03:39:14;0.22;;;0.22;;
23262;SDS011;11800;49.830;9.922;2023-04-03T03:41:40;0.20;;;0.20;;
23262;SDS011;11800;49.830;9.922;2023-04-03T03:44:06;0.20;;;0.20;;
23262;SDS011;11800;49.830;9.922;2023-04-03T03:46:32;0.20;;;0.20;;
23262;SDS011;11800;49.830;9.922;2023-04-03T03:48:58;0.20;;;0.20;;
23262;SDS011;11800;49.830;9.922;2023-04-03T03:51:24;0.20;;;0.20;;
23262;SDS011;11800;49.830;9.922;2023-04-03T03:53:50;0.20;;;0.20;;
23262;SDS011;11800;49.830;9.922;2023-04-03T03:56:16;0.20;;;0.20;;
23262;SDS011;11800;49.830;9.922;2023-04-03T03:58:42;0.20;;;0.20;;
23262;SDS011;11800;49.830;9.922;2023-04-03T04:01:09;0.20;;;0.20;;
23262;SDS011;11800;49.830;9.922;2023-04-03T04:03:35;0.20;;;0.20;;
23262;SDS011;11800;49.830;9.922;2023-04-03T04:06:02;0.13;;;0.13;;
23262;SDS011;11800;49.830;9.922;2023-04-03T04:08:28;0.20;;;0.20;;
23262;SDS011;11800;49.830;9.922;2023-04-03T04:10:54;0.20;;;0.20;;
23262;SDS011;11800;49.830;9.922;2023-04-03T04:13:20;0.20;;;0.20;;
23262;SDS011;11800;49.830;9.922;2023-04-03T04:15:46;0.20;;;0.20;;
23262;SDS011;11800;49.830;9.922;2023-04-03T04:18:12;0.20;;;0.20;;
23262;SDS011;11800;49.830;9.922;2023-04-03T04:20:38;0.20;;;0.20;;
23262;SDS011;11800;49.830;9.922;2023-04-03T04:23:04;0.20;;;0.20;;
23262;SDS011;11800;49.830;9.922;2023-04-03T04:25:30;0.20;;;0.20;;
23262;SDS011;11800;49.830;9.922;2023-04-03T04:27:56;0.20;;;0.20;;
23262;SDS011;11800;49.830;9.922;2023-04-03T04:30:22;0.10;;;0.10;;
23262;SDS011;11800;49.830;9.922;2023-04-03T04:32:48;0.10;;;0.10;;
23262;SDS011;11800;49.830;9.922;2023-04-03T04:35:14;0.13;;;0.13;;
23262;SDS011;11800;49.830;9.922;2023-04-03T04:37:40;0.20;;;0.20;;
23262;SDS011;11800;49.830;9.922;2023-04-03T04:40:06;0.20;;;0.20;;
23262;SDS011;11800;49.830;9.922;2023-04-03T04:42:32;0.20;;;0.20;;
23262;SDS011;11800;49.830;9.922;2023-04-03T04:44:58;0.20;;;0.20;;
23262;SDS011;11800;49.830;9.922;2023-04-03T04:47:24;0.20;;;0.20;;
23262;SDS011;11800;49.830;9.922;2023-04-03T04:49:50;0.20;;;0.20;;
23262;SDS011;11800;49.830;9.922;2023-04-03T04:52:16;0.20;;;0.20;;
23262;SDS011;11800;49.830;9.922;2023-04-03T04:54:42;0.20;;;0.20;;
23262;SDS011;11800;49.830;9.922;2023-04-03T04:57:08;0.20;;;0.20;;
23262;SDS011;11800;49.830;9.922;2023-04-03T04:59:35;0.20;;;0.20;;
23262;SDS011;11800;49.830;9.922;2023-04-03T05:02:01;0.20;;;0.20;;
23262;SDS011;11800;49.830;9.922;2023-04-03T05:04:27;0.20;;;0.20;;
23262;SDS011;11800;49.830;9.922;2023-04-03T05:06:53;0.20;;;0.20;;
23262;SDS011;11800;49.830;9.922;2023-04-03T05:09:19;0.20;;;0.20;;
23262;SDS011;11800;49.830;9.922;2023-04-03T05:11:45;0.30;;;0.30;;
23262;SDS011;11800;49.830;9.922;2023-04-03T05:14:11;0.20;;;0.20;;
23262;SDS011;11800;49.830;9.922;2023-04-03T05:16:38;0.20;;;0.20;;
23262;SDS011;11800;49.830;9.922;2023-04-03T05:19:04;0.20;;;0.20;;
23262;SDS011;11800;49.830;9.922;2023-04-03T05:21:30;0.20;;;0.20;;
23262;SDS011;11800;49.830;9.922;2023-04-03T05:24:00;0.20;;;0.20;;
23262;SDS011;11800;49.830;9.922;2023-04-03T05:26:28;0.20;;;0.20;;
23262;SDS011;11800;49.830;9.922;2023-04-03T05:28:54;0.20;;;0.20;;
23262;SDS011;11800;49.830;9.922;2023-04-03T05:31:20;0.20;;;0.20;;
23262;SDS011;11800;49.830;9.922;2023-04-03T05:33:46;0.20;;;0.20;;
23262;SDS011;11800;49.830;9.922;2023-04-03T05:36:12;0.10;;;0.10;;
23262;SDS011;11800;49.830;9.922;2023-04-03T05:38:38;0.20;;;0.20;;
23262;SDS011;11800;49.830;9.922;2023-04-03T05:41:05;0.20;;;0.20;;
23262;SDS011;11800;49.830;9.922;2023-04-03T05:43:31;0.20;;;0.20;;
23262;SDS011;11800;49.830;9.922;2023-04-03T05:45:58;0.20;;;0.20;;
23262;SDS011;11800;49.830;9.922;2023-04-03T05:48:24;0.20;;;0.20;;
23262;SDS011;11800;49.830;9.922;2023-04-03T05:50:51;0.10;;;0.10;;
23262;SDS011;11800;49.830;9.922;2023-04-03T05:53:24;0.20;;;0.20;;
23262;SDS011;11800;49.830;9.922;2023-04-03T05:58:18;0.10;;;0.10;;
23262;SDS011;11800;49.830;9.922;2023-04-03T06:00:44;0.22;;;0.22;;
23262;SDS011;11800;49.830;9.922;2023-04-03T06:03:10;0.20;;;0.20;;
23262;SDS011;11800;49.830;9.922;2023-04-03T06:05:36;0.20;;;0.20;;
23262;SDS011;11800;49.830;9.922;2023-04-03T06:08:02;0.20;;;0.20;;
23262;SDS011;11800;49.830;9.922;2023-04-03T06:10:28;0.20;;;0.20;;
23262;SDS011;11800;49.830;9.922;2023-04-03T06:12:54;0.20;;;0.20;;
23262;SDS011;11800;49.830;9.922;2023-04-03T06:15:20;0.20;;;0.20;;
23262;SDS011;11800;49.830;9.922;2023-04-03T06:17:47;0.20;;;0.20;;
23262;SDS011;11800;49.830;9.922;2023-04-03T06:20:13;0.20;;;0.20;;
23262;SDS011;11800;49.830;9.922;2023-04-03T06:22:39;0.20;;;0.20;;
23262;SDS011;11800;49.830;9.922;2023-04-03T06:25:06;0.20;;;0.20;;
23262;SDS011;11800;49.830;9.922;2023-04-03T06:27:32;0.20;;;0.20;;
23262;SDS011;11800;49.830;9.922;2023-04-03T06:29:58;0.25;;;0.25;;
23262;SDS011;11800;49.830;9.922;2023-04-03T06:32:24;0.20;;;0.20;;
23262;SDS011;11800;49.830;9.922;2023-04-03T06:34:51;0.20;;;0.20;;
23262;SDS011;11800;49.830;9.922;2023-04-03T06:37:19;0.20;;;0.20;;
23262;SDS011;11800;49.830;9.922;2023-04-03T06:39:45;0.20;;;0.20;;
23262;SDS011;11800;49.830;9.922;2023-04-03T06:42:12;0.20;;;0.20;;
23262;SDS011;11800;49.830;9.922;2023-04-03T06:44:38;0.20;;;0.20;;
23262;SDS011;11800;49.830;9.922;2023-04-03T06:47:04;0.17;;;0.17;;
23262;SDS011;11800;49.830;9.922;2023-04-03T06:49:31;0.20;;;0.20;;
23262;SDS011;11800;49.830;9.922;2023-04-03T06:51:57;0.20;;;0.20;;
23262;SDS011;11800;49.830;9.922;2023-04-03T06:54:23;0.20;;;0.20;;
23262;SDS011;11800;49.830;9.922;2023-04-03T06:56:50;0.10;;;0.10;;
23262;SDS011;11800;49.830;9.922;2023-04-03T06:59:16;0.20;;;0.20;;
23262;SDS011;11800;49.830;9.922;2023-04-03T07:01:42;0.13;;;0.13;;
23262;SDS011;11800;49.830;9.922;2023-04-03T07:04:08;0.20;;;0.20;;
23262;SDS011;11800;49.830;9.922;2023-04-03T07:06:34;0.10;;;0.10;;
23262;SDS011;11800;49.830;9.922;2023-04-03T07:09:00;0.20;;;0.20;;
23262;SDS011;11800;49.830;9.922;2023-04-03T07:11:26;0.10;;;0.10;;
23262;SDS011;11800;49.830;9.922;2023-04-03T07:13:52;0.20;;;0.20;;
23262;SDS011;11800;49.830;9.922;2023-04-03T07:16:19;0.20;;;0.20;;
23262;SDS011;11800;49.830;9.922;2023-04-03T07:18:45;0.20;;;0.20;;
23262;SDS011;11800;49.830;9.922;2023-04-03T07:21:11;0.20;;;0.20;;
23262;SDS011;11800;49.830;9.922;2023-04-03T07:23:37;0.20;;;0.20;;
23262;SDS011;11800;49.830;9.922;2023-04-03T07:26:03;0.15;;;0.15;;
23262;SDS011;11800;49.830;9.922;2023-04-03T07:28:30;0.13;;;0.13;;
23262;SDS011;11800;49.830;9.922;2023-04-03T07:31:01;0.20;;;0.20;;
23262;SDS011;11800;49.830;9.922;2023-04-03T07:33:27;0.20;;;0.20;;
23262;SDS011;11800;49.830;9.922;2023-04-03T07:35:53;0.10;;;0.10;;
23262;SDS011;11800;49.830;9.922;2023-04-03T07:38:19;0.10;;;0.10;;
23262;SDS011;11800;49.830;9.922;2023-04-03T07:40:49;0.17;;;0.17;;
23262;SDS011;11800;49.830;9.922;2023-04-03T07:43:16;0.10;;;0.10;;
23262;SDS011;11800;49.830;9.922;2023-04-03T07:45:42;0.13;;;0.13;;
23262;SDS011;11800;49.830;9.922;2023-04-03T07:48:12;0.13;;;0.13;;
23262;SDS011;11800;49.830;9.922;2023-04-03T07:50:41;0.10;;;0.10;;
23262;SDS011;11800;49.830;9.922;2023-04-03T07:53:09;0.10;;;0.10;;
23262;SDS011;11800;49.830;9.922;2023-04-03T07:55:35;0.20;;;0.20;;
23262;SDS011;11800;49.830;9.922;2023-04-03T07:58:07;0.10;;;0.10;;
23262;SDS011;11800;49.830;9.922;2023-04-03T08:00:34;0.10;;;0.10;;
23262;SDS011;11800;49.830;9.922;2023-04-03T08:03:00;0.20;;;0.20;;
23262;SDS011;11800;49.830;9.922;2023-04-03T08:05:26;0.10;;;0.10;;
23262;SDS011;11800;49.830;9.922;2023-04-03T08:07:52;0.10;;;0.10;;
23262;SDS011;11800;49.830;9.922;2023-04-03T08:10:18;0.10;;;0.10;;
23262;SDS011;11800;49.830;9.922;2023-04-03T08:12:47;0.20;;;0.20;;
23262;SDS011;11800;49.830;9.922;2023-04-03T08:15:14;0.10;;;0.10;;
23262;SDS011;11800;49.830;9.922;2023-04-03T08:17:41;0.10;;;0.10;;
23262;SDS011;11800;49.830;9.922;2023-04-03T08:20:07;0.20;;;0.20;;
23262;SDS011;11800;49.830;9.922;2023-04-03T08:22:33;0.20;;;0.20;;
23262;SDS011;11800;49.830;9.922;2023-04-03T08:24:59;0.10;;;0.10;;
23262;SDS011;11800;49.830;9.922;2023-04-03T08:27:26;0.20;;;0.20;;
23262;SDS011;11800;49.830;9.922;2023-04-03T08:29:53;0.17;;;0.17;;
23262;SDS011;11800;49.830;9.922;2023-04-03T08:32:19;0.10;;;0.10;;
23262;SDS011;11800;49.830;9.922;2023-04-03T08:34:45;0.10;;;0.10;;
23262;SDS011;11800;49.830;9.922;2023-04-03T08:37:11;0.20;;;0.20;;
23262;SDS011;11800;49.830;9.922;2023-04-03T08:39:37;0.10;;;0.10;;
23262;SDS011;11800;49.830;9.922;2023-04-03T08:42:05;0.10;;;0.10;;
23262;SDS011;11800;49.830;9.922;2023-04-03T08:51:54;0.10;;;0.10;;
23262;SDS011;11800;49.830;9.922;2023-04-03T08:54:30;0.15;;;0.15;;
23262;SDS011;11800;49.830;9.922;2023-04-03T08:56:58;0.10;;;0.10;;
23262;SDS011;11800;49.830;9.922;2023-04-03T08:59:28;0.20;;;0.20;;
23262;SDS011;11800;49.830;9.922;2023-04-03T09:01:56;0.10;;;0.10;;
23262;SDS011;11800;49.830;9.922;2023-04-03T09:04:23;0.15;;;0.15;;
23262;SDS011;11800;49.830;9.922;2023-04-03T09:07:02;0.20;;;0.20;;
23262;SDS011;11800;49.830;9.922;2023-04-03T09:09:33;0.10;;;0.10;;
23262;SDS011;11800;49.830;9.922;2023-04-03T09:14:30;0.17;;;0.17;;
23262;SDS011;11800;49.830;9.922;2023-04-03T09:17:00;0.20;;;0.20;;
23262;SDS011;11800;49.830;9.922;2023-04-03T09:21:56;0.10;;;0.10;;
23262;SDS011;11800;49.830;9.922;2023-04-03T09:24:22;0.10;;;0.10;;
23262;SDS011;11800;49.830;9.922;2023-04-03T09:26:53;0.10;;;0.10;;
23262;SDS011;11800;49.830;9.922;2023-04-03T09:29:21;0.20;;;0.20;;
23262;SDS011;11800;49.830;9.922;2023-04-03T09:31:48;0.10;;;0.10;;
23262;SDS011;11800;49.830;9.922;2023-04-03T09:34:32;0.10;;;0.10;;
23262;SDS011;11800;49.830;9.922;2023-04-03T09:37:00;0.10;;;0.10;;
23262;SDS011;11800;49.830;9.922;2023-04-03T09:39:54;0.20;;;0.20;;
23262;SDS011;11800;49.830;9.922;2023-04-03T09:42:21;0.13;;;0.13;;
23262;SDS011;11800;49.830;9.922;2023-04-03T09:44:53;0.10;;;0.10;;
23262;SDS011;11800;49.830;9.922;2023-04-03T09:47:24;0.10;;;0.10;;
23262;SDS011;11800;49.830;9.922;2023-04-03T09:49:50;0.10;;;0.10;;
23262;SDS011;11800;49.830;9.922;2023-04-03T09:52:34;0.10;;;0.10;;
23262;SDS011;11800;49.830;9.922;2023-04-03T09:55:07;0.10;;;0.10;;
23262;SDS011;11800;49.830;9.922;2023-04-03T09:57:34;0.10;;;0.10;;
23262;SDS011;11800;49.830;9.922;2023-04-03T10:00:01;0.20;;;0.20;;
23262;SDS011;11800;49.830;9.922;2023-04-03T10:02:36;0.10;;;0.10;;
23262;SDS011;11800;49.830;9.922;2023-04-03T10:05:03;0.15;;;0.15;;
23262;SDS011;11800;49.830;9.922;2023-04-03T10:07:34;0.20;;;0.20;;
23262;SDS011;11800;49.830;9.922;2023-04-03T10:10:22;0.10;;;0.10;;
23262;SDS011;11800;49.830;9.922;2023-04-03T10:13:03;0.10;;;0.10;;
23262;SDS011;11800;49.830;9.922;2023-04-03T10:15:29;0.10;;;0.10;;
23262;SDS011;11800;49.830;9.922;2023-04-03T10:18:03;0.10;;;0.10;;
23262;SDS011;11800;49.830;9.922;2023-04-03T10:41:38;0.10;;;0.10;;
23262;SDS011;11800;49.830;9.922;2023-04-03T10:44:15;0.10;;;0.10;;
23262;SDS011;11800;49.830;9.922;2023-04-03T10:46:47;0.10;;;0.10;;
23262;SDS011;11800;49.830;9.922;2023-04-03T10:54:16;0.10;;;0.10;;
23262;SDS011;11800;49.830;9.922;2023-04-03T11:02:05;0.10;;;0.10;;
23262;SDS011;11800;49.830;9.922;2023-04-03T11:04:34;0.10;;;0.10;;
23262;SDS011;11800;49.830;9.922;2023-04-03T11:12:25;0.10;;;0.10;;
23262;SDS011;11800;49.830;9.922;2023-04-03T11:14:53;0.10;;;0.10;;
23262;SDS011;11800;49.830;9.922;2023-04-03T11:17:26;0.10;;;0.10;;
23262;SDS011;11800;49.830;9.922;2023-04-03T11:22:42;0.10;;;0.10;;
23262;SDS011;11800;49.830;9.922;2023-04-03T11:27:42;0.10;;;0.10;;
23262;SDS011;11800;49.830;9.922;2023-04-03T11:30:16;0.10;;;0.10;;
23262;SDS011;11800;49.830;9.922;2023-04-03T11:32:48;0.10;;;0.10;;
23262;SDS011;11800;49.830;9.922;2023-04-03T11:35:18;0.10;;;0.10;;
23262;SDS011;11800;49.830;9.922;2023-04-03T11:37:45;0.10;;;0.10;;
23262;SDS011;11800;49.830;9.922;2023-04-03T11:42:47;0.10;;;0.10;;
23262;SDS011;11800;49.830;9.922;2023-04-03T11:58:22;0.10;;;0.10;;
23262;SDS011;11800;49.830;9.922;2023-04-03T12:16:05;0.10;;;0.10;;
23262;SDS011;11800;49.830;9.922;2023-04-03T12:21:07;0.10;;;0.10;;
23262;SDS011;11800;49.830;9.922;2023-04-03T12:23:35;0.20;;;0.20;;
23262;SDS011;11800;49.830;9.922;2023-04-03T12:26:18;0.10;;;0.10;;
23262;SDS011;11800;49.830;9.922;2023-04-03T12:28:46;0.20;;;0.20;;
23262;SDS011;11800;49.830;9.922;2023-04-03T12:31:13;0.20;;;0.20;;
23262;SDS011;11800;49.830;9.922;2023-04-03T12:36:42;0.20;;;0.20;;
23262;SDS011;11800;49.830;9.922;2023-04-03T12:39:21;0.20;;;0.20;;
23262;SDS011;11800;49.830;9.922;2023-04-03T12:41:57;0.20;;;0.20;;
23262;SDS011;11800;49.830;9.922;2023-04-03T12:44:35;0.30;;;0.30;;
23262;SDS011;11800;49.830;9.922;2023-04-03T12:47:22;0.30;;;0.30;;
23262;SDS011;11800;49.830;9.922;2023-04-03T12:49:49;0.20;;;0.20;;
23262;SDS011;11800;49.830;9.922;2023-04-03T12:54:47;0.30;;;0.30;;
23262;SDS011;11800;49.830;9.922;2023-04-03T12:57:46;0.30;;;0.30;;
23262;SDS011;11800;49.830;9.922;2023-04-03T13:02:47;0.40;;;0.40;;
23262;SDS011;11800;49.830;9.922;2023-04-03T13:05:15;0.40;;;0.40;;
23262;SDS011;11800;49.830;9.922;2023-04-03T13:07:42;0.40;;;0.40;;
23262;SDS011;11800;49.830;9.922;2023-04-03T13:12:35;0.20;;;0.20;;
23262;SDS011;11800;49.830;9.922;2023-04-03T13:15:11;0.40;;;0.40;;
23262;SDS011;11800;49.830;9.922;2023-04-03T13:17:41;0.40;;;0.40;;
23262;SDS011;11800;49.830;9.922;2023-04-03T13:20:14;0.40;;;0.40;;
23262;SDS011;11800;49.830;9.922;2023-04-03T13:25:22;0.40;;;0.40;;
23262;SDS011;11800;49.830;9.922;2023-04-03T13:27:48;0.40;;;0.40;;
23262;SDS011;11800;49.830;9.922;2023-04-03T13:30:34;0.40;;;0.40;;
23262;SDS011;11800;49.830;9.922;2023-04-03T13:33:02;0.30;;;0.30;;
23262;SDS011;11800;49.830;9.922;2023-04-03T13:35:33;0.20;;;0.20;;
23262;SDS011;11800;49.830;9.922;2023-04-03T13:38:02;0.20;;;0.20;;
23262;SDS011;11800;49.830;9.922;2023-04-03T13:40:28;0.30;;;0.30;;
23262;SDS011;11800;49.830;9.922;2023-04-03T13:42:59;0.20;;;0.20;;
23262;SDS011;11800;49.830;9.922;2023-04-03T13:45:26;0.30;;;0.30;;
23262;SDS011;11800;49.830;9.922;2023-04-03T13:48:06;0.30;;;0.30;;
23262;SDS011;11800;49.830;9.922;2023-04-03T13:50:33;0.30;;;0.30;;
23262;SDS011;11800;49.830;9.922;2023-04-03T13:53:15;0.30;;;0.30;;
23262;SDS011;11800;49.830;9.922;2023-04-03T13:56:42;0.30;;;0.30;;
23262;SDS011;11800;49.830;9.922;2023-04-03T14:01:08;0.40;;;0.40;;
23262;SDS011;11800;49.830;9.922;2023-04-03T14:03:45;0.40;;;0.40;;
23262;SDS011;11800;49.830;9.922;2023-04-03T14:06:13;0.40;;;0.40;;
23262;SDS011;11800;49.830;9.922;2023-04-03T14:08:40;0.20;;;0.20;;
23262;SDS011;11800;49.830;9.922;2023-04-03T14:11:09;0.30;;;0.30;;
23262;SDS011;11800;49.830;9.922;2023-04-03T14:13:37;0.40;;;0.40;;
23262;SDS011;11800;49.830;9.922;2023-04-03T14:16:03;0.43;;;0.43;;
23262;SDS011;11800;49.830;9.922;2023-04-03T14:18:29;0.40;;;0.40;;
23262;SDS011;11800;49.830;9.922;2023-04-03T14:20:55;0.40;;;0.40;;
23262;SDS011;11800;49.830;9.922;2023-04-03T14:23:21;0.40;;;0.40;;
23262;SDS011;11800;49.830;9.922;2023-04-03T14:25:48;0.50;;;0.50;;
23262;SDS011;11800;49.830;9.922;2023-04-03T14:28:16;0.40;;;0.40;;
23262;SDS011;11800;49.830;9.922;2023-04-03T14:30:42;0.50;;;0.50;;
23262;SDS011;11800;49.830;9.922;2023-04-03T14:33:10;0.50;;;0.50;;
23262;SDS011;11800;49.830;9.922;2023-04-03T14:35:38;0.50;;;0.50;;
23262;SDS011;11800;49.830;9.922;2023-04-03T14:38:05;0.52;;;0.52;;
23262;SDS011;11800;49.830;9.922;2023-04-03T14:40:38;0.60;;;0.60;;
23262;SDS011;11800;49.830;9.922;2023-04-03T14:43:05;0.30;;;0.30;;
23262;SDS011;11800;49.830;9.922;2023-04-03T14:45:31;0.17;;;0.17;;
23262;SDS011;11800;49.830;9.922;2023-04-03T14:47:58;0.20;;;0.20;;
23262;SDS011;11800;49.830;9.922;2023-04-03T14:50:25;0.10;;;0.10;;
23262;SDS011;11800;49.830;9.922;2023-04-03T14:52:53;0.10;;;0.10;;
23262;SDS011;11800;49.830;9.922;2023-04-03T14:55:20;0.40;;;0.40;;
23262;SDS011;11800;49.830;9.922;2023-04-03T14:57:46;0.40;;;0.40;;
23262;SDS011;11800;49.830;9.922;2023-04-03T15:00:16;0.50;;;0.50;;
23262;SDS011;11800;49.830;9.922;2023-04-03T15:02:43;0.50;;;0.50;;
23262;SDS011;11800;49.830;9.922;2023-04-03T15:05:10;0.55;;;0.55;;
23262;SDS011;11800;49.830;9.922;2023-04-03T15:07:38;0.40;;;0.40;;
23262;SDS011;11800;49.830;9.922;2023-04-03T15:12:43;0.60;;;0.60;;
23262;SDS011;11800;49.830;9.922;2023-04-03T15:15:09;0.50;;;0.50;;
23262;SDS011;11800;49.830;9.922;2023-04-03T15:17:35;0.50;;;0.50;;
23262;SDS011;11800;49.830;9.922;2023-04-03T15:20:02;0.50;;;0.50;;
23262;SDS011;11800;49.830;9.922;2023-04-03T15:22:29;0.20;;;0.20;;
23262;SDS011;11800;49.830;9.922;2023-04-03T15:24:55;0.10;;;0.10;;
23262;SDS011;11800;49.830;9.922;2023-04-03T15:27:21;0.10;;;0.10;;
23262;SDS011;11800;49.830;9.922;2023-04-03T15:29:47;0.05;;;0.05;;
23262;SDS011;11800;49.830;9.922;2023-04-03T15:32:13;0.10;;;0.10;;
23262;SDS011;11800;49.830;9.922;2023-04-03T15:34:39;0.00;;;0.00;;
23262;SDS011;11800;49.830;9.922;2023-04-03T15:37:05;0.00;;;0.00;;
23262;SDS011;11800;49.830;9.922;2023-04-03T15:39:31;0.10;;;0.10;;
23262;SDS011;11800;49.830;9.922;2023-04-03T15:41:57;0.10;;;0.10;;
23262;SDS011;11800;49.830;9.922;2023-04-03T15:44:31;0.10;;;0.10;;
23262;SDS011;11800;49.830;9.922;2023-04-03T15:46:57;0.08;;;0.08;;
23262;SDS011;11800;49.830;9.922;2023-04-03T15:49:23;0.10;;;0.10;;
23262;SDS011;11800;49.830;9.922;2023-04-03T15:51:50;0.10;;;0.10;;
23262;SDS011;11800;49.830;9.922;2023-04-03T15:54:16;0.10;;;0.10;;
23262;SDS011;11800;49.830;9.922;2023-04-03T15:56:42;0.10;;;0.10;;
23262;SDS011;11800;49.830;9.922;2023-04-03T15:59:08;0.10;;;0.10;;
23262;SDS011;11800;49.830;9.922;2023-04-03T16:01:34;0.10;;;0.10;;
23262;SDS011;11800;49.830;9.922;2023-04-03T16:04:00;0.10;;;0.10;;
23262;SDS011;11800;49.830;9.922;2023-04-03T16:06:26;0.10;;;0.10;;
23262;SDS011;11800;49.830;9.922;2023-04-03T16:08:55;0.10;;;0.10;;
23262;SDS011;11800;49.830;9.922;2023-04-03T16:11:23;0.10;;;0.10;;
23262;SDS011;11800;49.830;9.922;2023-04-03T16:13:49;0.10;;;0.10;;
23262;SDS011;11800;49.830;9.922;2023-04-03T16:16:15;0.00;;;0.00;;
23262;SDS011;11800;49.830;9.922;2023-04-03T16:18:41;0.10;;;0.10;;
23262;SDS011;11800;49.830;9.922;2023-04-03T16:21:07;0.10;;;0.10;;
23262;SDS011;11800;49.830;9.922;2023-04-03T16:23:34;0.10;;;0.10;;
23262;SDS011;11800;49.830;9.922;2023-04-03T16:26:00;0.10;;;0.10;;
23262;SDS011;11800;49.830;9.922;2023-04-03T16:28:26;0.10;;;0.10;;
23262;SDS011;11800;49.830;9.922;2023-04-03T16:30:52;0.10;;;0.10;;
23262;SDS011;11800;49.830;9.922;2023-04-03T16:33:18;0.00;;;0.00;;
23262;SDS011;11800;49.830;9.922;2023-04-03T16:35:46;0.10;;;0.10;;
23262;SDS011;11800;49.830;9.922;2023-04-03T16:38:13;0.10;;;0.10;;
23262;SDS011;11800;49.830;9.922;2023-04-03T16:40:40;0.10;;;0.10;;
23262;SDS011;11800;49.830;9.922;2023-04-03T16:43:06;0.10;;;0.10;;
23262;SDS011;11800;49.830;9.922;2023-04-03T16:45:32;0.10;;;0.10;;
23262;SDS011;11800;49.830;9.922;2023-04-03T16:47:58;0.10;;;0.10;;
23262;SDS011;11800;49.830;9.922;2023-04-03T16:50:24;0.10;;;0.10;;